Airfield :
LOGIN :

Register | Disclaimer

   EN    FR    IT 

 










Legend :    VFR   Marginal VFR   IFR   Intensive IFR   Very Intensive IFR
Visi :
Ceiling :
>= 8 km
>= 3000ft
5 to 8 km
1000 to 3000 ft
1500m to 5 km
500 to 1000 ft
800 to 1500m
200 to 500 ft
< 800m
< 200 ft
Symbols :   Thunderstorms  Fog  Heavy snow  Heavy precipitations  Wind > 20 kt
SIGMETs :     Misc.  Thunderstorms  Icing  Turbulence  Mountain Waves  Volcanic Ashes






- Airport Elevation : 194 ft
- IATA code : IEG


EPZG - Zielona Gora Babimost

CURRENT METAR :
  • 241800Z 20008KT CAVOK 21/15 Q1007

EXPIRED METARs :
  • 241730Z 19007KT CAVOK 21/15 Q1007
  • 241700Z 19006KT CAVOK 21/15 Q1007
  • 241630Z 21006KT CAVOK 22/13 Q1006
  • 241600Z 21006KT CAVOK 23/13 Q1006
  • 241530Z 21005KT CAVOK 23/13 Q1006

TAF TAF EPZG
Valid from the 24 at 18:00 until the 25 at 03:00 UTC


241730Z 2418/2503 23006KT CAVOK
TEMPO 2418/2420 BKN040TCU



MET'MAP, your aeronautical weather chart ! - Copyright ORBIFLY December 2007 - Disclaimer

ORBIFLY MET'MAP TEAM :

Programming & Development : Alexandra Zaïnal
Original concept : Baudouin d'Aumeries
Technical & hardware support : Manuel Goepfert
Assistance : Marc-Olivier Méhu

Contact : metmap@orbifly.com




SOURCES & CREDITS :

   NOAA